SKW4678 KBOI-KSFO
Flight info
| Callsign | SKW4678 |
|---|---|
| Flight time | 1h 24m |
| Altitude | 34000 |
| Route | HYVAL REO LEGGS BDEGA4 |
| Aircraft | E75L/M-SDE3GILORVW/S |
Departure
| Time | 2026-05-09 01:42 |
|---|---|
| Airport | Boise Air Terminal/Gowen Field (KBOI) |
Arrival
| Time | 2026-05-09 03:07 |
|---|---|
| Airport | San Francisco International Airport (KSFO) |
| Time | Latitude | Longitude | Altitude | Speed | Heading |
|---|---|---|---|---|---|
| 2026-05-09 01:21 | 43.56731 | -116.22126 | 2879 ft | 0 kts | 24° |
| 2026-05-09 01:34 | 43.56725 | -116.22130 | 2879 ft | 4 kts | 25° |
| 2026-05-09 01:35 | 43.56700 | -116.22146 | 2879 ft | 4 kts | 27° |
| 2026-05-09 01:35 | 43.56676 | -116.22164 | 2879 ft | 4 kts | 30° |
| 2026-05-09 01:35 | 43.56654 | -116.22184 | 2879 ft | 4 kts | 39° |
| 2026-05-09 01:35 | 43.56639 | -116.22211 | 2879 ft | 4 kts | 88° |
| 2026-05-09 01:36 | 43.56640 | -116.22221 | 2879 ft | 2 kts | 115° |
| 2026-05-09 01:38 | 43.56640 | -116.22220 | 2879 ft | 0 kts | 115° |
| 2026-05-09 01:38 | 43.56632 | -116.22197 | 2879 ft | 5 kts | 115° |
| 2026-05-09 01:38 | 43.56609 | -116.22129 | 2879 ft | 10 kts | 115° |
| 2026-05-09 01:38 | 43.56575 | -116.22029 | 2879 ft | 13 kts | 115° |
| 2026-05-09 01:39 | 43.56530 | -116.21899 | 2882 ft | 17 kts | 115° |
| 2026-05-09 01:39 | 43.56479 | -116.21749 | 2879 ft | 18 kts | 115° |
| 2026-05-09 01:39 | 43.56422 | -116.21580 | 2879 ft | 20 kts | 115° |
| 2026-05-09 01:39 | 43.56359 | -116.21398 | 2879 ft | 22 kts | 115° |
| 2026-05-09 01:40 | 43.56294 | -116.21205 | 2879 ft | 23 kts | 116° |
| 2026-05-09 01:40 | 43.56230 | -116.21020 | 2880 ft | 21 kts | 115° |
| 2026-05-09 01:40 | 43.56164 | -116.20829 | 2879 ft | 23 kts | 116° |
| 2026-05-09 01:40 | 43.56098 | -116.20634 | 2879 ft | 23 kts | 115° |
| 2026-05-09 01:41 | 43.56032 | -116.20439 | 2879 ft | 21 kts | 115° |
| 2026-05-09 01:41 | 43.55980 | -116.20286 | 2879 ft | 12 kts | 115° |
| 2026-05-09 01:41 | 43.55929 | -116.20247 | 2879 ft | 10 kts | 193° |
| 2026-05-09 01:41 | 43.55873 | -116.20298 | 2880 ft | 9 kts | 245° |
| 2026-05-09 01:42 | 43.55897 | -116.20393 | 2880 ft | 21 kts | 295° |
| 2026-05-09 01:42 | 43.56076 | -116.20925 | 2879 ft | 100 kts | 295° |
| 2026-05-09 01:42 | 43.56469 | -116.22101 | 2936 ft | 163 kts | 300° |
| 2026-05-09 01:42 | 43.56960 | -116.23582 | 3726 ft | 177 kts | 294° |
| 2026-05-09 01:43 | 43.57474 | -116.25235 | 4447 ft | 199 kts | 292° |
| 2026-05-09 01:43 | 43.57965 | -116.27061 | 5437 ft | 207 kts | 292° |
| 2026-05-09 01:43 | 43.58483 | -116.28989 | 6339 ft | 226 kts | 292° |
| 2026-05-09 01:43 | 43.59086 | -116.31029 | 7201 ft | 241 kts | 293° |
| 2026-05-09 01:44 | 43.59666 | -116.33258 | 8041 ft | 255 kts | 279° |
| 2026-05-09 01:44 | 43.59453 | -116.35738 | 8931 ft | 272 kts | 253° |
| 2026-05-09 01:44 | 43.58514 | -116.38057 | 9915 ft | 284 kts | 234° |
| 2026-05-09 01:44 | 43.57138 | -116.40090 | 10692 ft | 299 kts | 229° |
| 2026-05-09 01:45 | 43.55599 | -116.42115 | 11493 ft | 310 kts | 227° |
| 2026-05-09 01:45 | 43.54008 | -116.44156 | 12524 ft | 314 kts | 228° |
| 2026-05-09 01:45 | 43.53948 | -116.44234 | 12565 ft | 314 kts | 228° |
| 2026-05-09 01:45 | 43.52586 | -116.46010 | 13555 ft | 315 kts | 229° |
| 2026-05-09 01:46 | 43.50992 | -116.48118 | 14626 ft | 319 kts | 230° |
| 2026-05-09 01:46 | 43.49373 | -116.50239 | 15624 ft | 324 kts | 229° |
| 2026-05-09 01:46 | 43.47722 | -116.52385 | 16621 ft | 329 kts | 230° |
| 2026-05-09 01:46 | 43.46038 | -116.54560 | 17548 ft | 334 kts | 230° |
| 2026-05-09 01:47 | 43.44328 | -116.56765 | 18405 ft | 340 kts | 230° |
| 2026-05-09 01:47 | 43.42583 | -116.58996 | 19180 ft | 345 kts | 230° |
| 2026-05-09 01:47 | 43.40824 | -116.61201 | 19965 ft | 350 kts | 229° |
| 2026-05-09 01:47 | 43.38980 | -116.63497 | 20762 ft | 355 kts | 229° |
| 2026-05-09 01:48 | 43.37126 | -116.65777 | 21539 ft | 360 kts | 229° |
| 2026-05-09 01:48 | 43.35250 | -116.68072 | 22287 ft | 363 kts | 228° |
| 2026-05-09 01:48 | 43.33373 | -116.70340 | 23042 ft | 365 kts | 227° |
| 2026-05-09 01:48 | 43.31420 | -116.72679 | 23707 ft | 369 kts | 227° |
| 2026-05-09 01:49 | 43.29488 | -116.74992 | 24439 ft | 368 kts | 227° |
| 2026-05-09 01:49 | 43.27557 | -116.77268 | 25037 ft | 372 kts | 226° |
| 2026-05-09 01:49 | 43.25577 | -116.79566 | 25709 ft | 374 kts | 226° |
| 2026-05-09 01:49 | 43.23579 | -116.81863 | 26328 ft | 376 kts | 225° |
| 2026-05-09 01:50 | 43.21565 | -116.84154 | 26993 ft | 376 kts | 225° |
| 2026-05-09 01:50 | 43.19536 | -116.86440 | 27555 ft | 379 kts | 225° |
| 2026-05-09 01:50 | 43.17488 | -116.88730 | 28106 ft | 381 kts | 225° |
| 2026-05-09 01:50 | 43.15424 | -116.91021 | 28682 ft | 383 kts | 224° |
| 2026-05-09 01:51 | 43.13384 | -116.93372 | 29198 ft | 382 kts | 230° |
| 2026-05-09 01:51 | 43.11679 | -116.96128 | 29736 ft | 379 kts | 236° |
| 2026-05-09 01:51 | 43.10042 | -116.98966 | 30237 ft | 381 kts | 236° |
| 2026-05-09 01:51 | 43.08395 | -117.01823 | 30626 ft | 384 kts | 236° |
| 2026-05-09 01:52 | 43.06737 | -117.04701 | 31018 ft | 386 kts | 236° |
| 2026-05-09 01:52 | 43.05068 | -117.07600 | 31361 ft | 389 kts | 236° |
| 2026-05-09 01:52 | 43.03389 | -117.10519 | 31699 ft | 392 kts | 236° |
| 2026-05-09 01:52 | 43.01698 | -117.13455 | 32054 ft | 394 kts | 236° |
| 2026-05-09 01:53 | 42.99999 | -117.16404 | 32429 ft | 395 kts | 236° |
| 2026-05-09 01:53 | 42.98299 | -117.19349 | 32903 ft | 394 kts | 236° |
| 2026-05-09 01:53 | 42.96609 | -117.22277 | 33387 ft | 392 kts | 236° |
| 2026-05-09 01:53 | 42.94923 | -117.25192 | 33873 ft | 390 kts | 236° |
| 2026-05-09 01:54 | 42.93240 | -117.28105 | 34092 ft | 394 kts | 236° |
| 2026-05-09 01:54 | 42.91527 | -117.31075 | 34066 ft | 402 kts | 236° |
| 2026-05-09 01:54 | 42.88026 | -117.37127 | 34082 ft | 410 kts | 236° |
| 2026-05-09 01:55 | 42.84476 | -117.43251 | 34103 ft | 412 kts | 236° |
| 2026-05-09 01:55 | 42.80933 | -117.49351 | 34020 ft | 413 kts | 236° |
| 2026-05-09 01:56 | 42.77366 | -117.55479 | 34004 ft | 414 kts | 236° |
| 2026-05-09 01:56 | 42.73791 | -117.61609 | 34034 ft | 413 kts | 237° |
| 2026-05-09 01:57 | 42.70213 | -117.67734 | 34047 ft | 413 kts | 237° |
| 2026-05-09 01:57 | 42.66632 | -117.73849 | 34068 ft | 413 kts | 236° |
| 2026-05-09 01:58 | 42.63046 | -117.79963 | 34074 ft | 414 kts | 236° |
| 2026-05-09 01:58 | 42.59435 | -117.86019 | 34077 ft | 416 kts | 232° |
| 2026-05-09 01:59 | 42.54922 | -117.91101 | 34087 ft | 424 kts | 225° |
| 2026-05-09 01:59 | 42.50281 | -117.96019 | 34070 ft | 423 kts | 225° |
| 2026-05-09 02:00 | 42.45635 | -118.00929 | 34056 ft | 423 kts | 225° |
| 2026-05-09 02:00 | 42.40992 | -118.05822 | 34050 ft | 424 kts | 225° |
| 2026-05-09 02:01 | 42.36342 | -118.10713 | 34048 ft | 424 kts | 225° |
| 2026-05-09 02:01 | 42.31716 | -118.15567 | 34029 ft | 423 kts | 225° |
| 2026-05-09 02:02 | 42.27060 | -118.20445 | 34033 ft | 424 kts | 225° |
| 2026-05-09 02:02 | 42.22401 | -118.25318 | 34033 ft | 424 kts | 225° |
| 2026-05-09 02:03 | 42.17737 | -118.30186 | 34036 ft | 424 kts | 225° |
| 2026-05-09 02:03 | 42.13067 | -118.35053 | 34025 ft | 426 kts | 225° |
| 2026-05-09 02:04 | 42.08400 | -118.39904 | 34025 ft | 424 kts | 225° |
| 2026-05-09 02:04 | 42.03731 | -118.44751 | 34032 ft | 425 kts | 225° |
| 2026-05-09 02:05 | 41.99061 | -118.49587 | 34035 ft | 424 kts | 225° |
| 2026-05-09 02:05 | 41.94392 | -118.54414 | 34035 ft | 424 kts | 225° |
| 2026-05-09 02:06 | 41.89717 | -118.59237 | 34028 ft | 423 kts | 225° |
| 2026-05-09 02:07 | 41.82712 | -118.66447 | 34046 ft | 422 kts | 225° |
| 2026-05-09 02:07 | 41.78026 | -118.71262 | 34028 ft | 425 kts | 225° |
| 2026-05-09 02:08 | 41.73341 | -118.76067 | 34033 ft | 424 kts | 225° |
| 2026-05-09 02:08 | 41.68664 | -118.80847 | 34050 ft | 424 kts | 226° |
| 2026-05-09 02:09 | 41.63975 | -118.85637 | 34052 ft | 424 kts | 225° |
| 2026-05-09 02:09 | 41.59287 | -118.90421 | 34048 ft | 425 kts | 225° |
| 2026-05-09 02:10 | 41.55388 | -118.94390 | 34063 ft | 424 kts | 226° |
| 2026-05-09 02:10 | 41.49937 | -118.99937 | 34044 ft | 423 kts | 226° |
| 2026-05-09 02:11 | 41.46008 | -119.03924 | 34044 ft | 424 kts | 226° |
| 2026-05-09 02:11 | 41.41319 | -119.08677 | 34050 ft | 423 kts | 225° |
| 2026-05-09 02:12 | 41.36628 | -119.13420 | 34057 ft | 424 kts | 225° |
| 2026-05-09 02:12 | 41.31941 | -119.18151 | 34036 ft | 422 kts | 226° |
| 2026-05-09 02:13 | 41.27252 | -119.22877 | 34026 ft | 423 kts | 225° |
| 2026-05-09 02:13 | 41.22562 | -119.27596 | 34027 ft | 423 kts | 225° |
| 2026-05-09 02:14 | 41.17862 | -119.32310 | 34031 ft | 422 kts | 225° |
| 2026-05-09 02:14 | 41.13212 | -119.36981 | 34026 ft | 423 kts | 226° |
| 2026-05-09 02:15 | 41.08514 | -119.41676 | 34031 ft | 422 kts | 226° |
| 2026-05-09 02:15 | 41.03820 | -119.46346 | 33997 ft | 423 kts | 226° |
| 2026-05-09 02:16 | 40.99132 | -119.51034 | 34044 ft | 422 kts | 226° |
| 2026-05-09 02:16 | 40.94435 | -119.55720 | 34030 ft | 423 kts | 226° |
| 2026-05-09 02:17 | 40.89726 | -119.60399 | 34029 ft | 423 kts | 225° |
| 2026-05-09 02:17 | 40.85013 | -119.65068 | 34032 ft | 423 kts | 225° |
| 2026-05-09 02:18 | 40.80299 | -119.69729 | 34023 ft | 423 kts | 225° |
| 2026-05-09 02:18 | 40.75585 | -119.74388 | 34027 ft | 423 kts | 225° |
| 2026-05-09 02:19 | 40.70868 | -119.79036 | 34014 ft | 423 kts | 225° |
| 2026-05-09 02:19 | 40.66160 | -119.83667 | 34013 ft | 421 kts | 225° |
| 2026-05-09 02:20 | 40.61453 | -119.88293 | 34000 ft | 422 kts | 225° |
| 2026-05-09 02:20 | 40.56738 | -119.92921 | 34015 ft | 423 kts | 225° |
| 2026-05-09 02:21 | 40.52018 | -119.97539 | 33992 ft | 423 kts | 225° |
| 2026-05-09 02:21 | 40.47287 | -120.02164 | 34009 ft | 424 kts | 225° |
| 2026-05-09 02:22 | 40.42555 | -120.06777 | 34002 ft | 424 kts | 225° |
| 2026-05-09 02:22 | 40.37821 | -120.11389 | 33987 ft | 424 kts | 225° |
| 2026-05-09 02:23 | 40.33091 | -120.15993 | 34026 ft | 423 kts | 225° |
| 2026-05-09 02:23 | 40.28395 | -120.20564 | 34038 ft | 423 kts | 225° |
| 2026-05-09 02:24 | 40.23656 | -120.25144 | 34051 ft | 424 kts | 225° |
| 2026-05-09 02:24 | 40.18910 | -120.29725 | 34058 ft | 424 kts | 225° |
| 2026-05-09 02:25 | 40.14165 | -120.34305 | 34058 ft | 424 kts | 225° |
| 2026-05-09 02:25 | 40.09419 | -120.38889 | 34054 ft | 424 kts | 225° |
| 2026-05-09 02:26 | 40.04670 | -120.43457 | 34048 ft | 424 kts | 225° |
| 2026-05-09 02:26 | 39.99918 | -120.48018 | 34050 ft | 424 kts | 225° |
| 2026-05-09 02:27 | 39.95162 | -120.52578 | 34059 ft | 425 kts | 225° |
| 2026-05-09 02:27 | 39.90396 | -120.57134 | 34062 ft | 424 kts | 225° |
| 2026-05-09 02:28 | 39.85705 | -120.61767 | 34064 ft | 425 kts | 225° |
| 2026-05-09 02:28 | 39.80959 | -120.66356 | 34080 ft | 425 kts | 225° |
| 2026-05-09 02:29 | 39.76200 | -120.70903 | 34080 ft | 424 kts | 225° |
| 2026-05-09 02:29 | 39.71430 | -120.75441 | 34050 ft | 426 kts | 225° |
| 2026-05-09 02:30 | 39.66642 | -120.79976 | 34076 ft | 426 kts | 225° |
| 2026-05-09 02:30 | 39.61854 | -120.84509 | 34072 ft | 422 kts | 224° |
| 2026-05-09 02:31 | 39.57078 | -120.89003 | 34063 ft | 424 kts | 224° |
| 2026-05-09 02:31 | 39.52303 | -120.93521 | 34058 ft | 427 kts | 225° |
| 2026-05-09 02:32 | 39.47508 | -120.98044 | 34068 ft | 427 kts | 224° |
| 2026-05-09 02:32 | 39.42708 | -121.02557 | 34062 ft | 429 kts | 224° |
| 2026-05-09 02:33 | 39.37873 | -121.07077 | 34057 ft | 429 kts | 224° |
| 2026-05-09 02:33 | 39.33333 | -121.11924 | 34097 ft | 414 kts | 237° |
| 2026-05-09 02:34 | 39.29790 | -121.17745 | 34099 ft | 412 kts | 239° |
| 2026-05-09 02:34 | 39.26292 | -121.23614 | 34073 ft | 412 kts | 240° |
| 2026-05-09 02:35 | 39.22815 | -121.29488 | 33967 ft | 410 kts | 239° |
| 2026-05-09 02:35 | 39.19339 | -121.35373 | 33975 ft | 413 kts | 239° |
| 2026-05-09 02:36 | 39.15813 | -121.41220 | 33973 ft | 413 kts | 239° |
| 2026-05-09 02:36 | 39.12317 | -121.47080 | 33973 ft | 412 kts | 239° |
| 2026-05-09 02:37 | 39.08827 | -121.52956 | 33975 ft | 415 kts | 239° |
| 2026-05-09 02:37 | 39.05323 | -121.58863 | 33984 ft | 415 kts | 239° |
| 2026-05-09 02:38 | 39.01824 | -121.64759 | 33988 ft | 415 kts | 239° |
| 2026-05-09 02:38 | 38.98323 | -121.70653 | 33991 ft | 415 kts | 239° |
| 2026-05-09 02:39 | 38.94819 | -121.76541 | 33988 ft | 415 kts | 239° |
| 2026-05-09 02:39 | 38.91312 | -121.82425 | 33994 ft | 415 kts | 239° |
| 2026-05-09 02:40 | 38.87823 | -121.88270 | 33987 ft | 415 kts | 239° |
| 2026-05-09 02:40 | 38.84310 | -121.94145 | 33775 ft | 413 kts | 239° |
| 2026-05-09 02:40 | 38.82569 | -121.97051 | 33594 ft | 410 kts | 239° |
| 2026-05-09 02:41 | 38.80825 | -121.99964 | 33116 ft | 414 kts | 239° |
| 2026-05-09 02:41 | 38.79070 | -122.02894 | 32669 ft | 415 kts | 239° |
| 2026-05-09 02:41 | 38.77309 | -122.05829 | 32183 ft | 415 kts | 238° |
| 2026-05-09 02:41 | 38.75553 | -122.08751 | 31731 ft | 412 kts | 238° |
| 2026-05-09 02:42 | 38.73808 | -122.11650 | 31285 ft | 410 kts | 238° |
| 2026-05-09 02:42 | 38.72072 | -122.14533 | 30815 ft | 407 kts | 238° |
| 2026-05-09 02:42 | 38.70350 | -122.17391 | 30352 ft | 404 kts | 238° |
| 2026-05-09 02:42 | 38.68635 | -122.20234 | 29927 ft | 403 kts | 238° |
| 2026-05-09 02:43 | 38.66927 | -122.23068 | 29486 ft | 401 kts | 238° |
| 2026-05-09 02:43 | 38.65228 | -122.25881 | 29039 ft | 399 kts | 238° |
| 2026-05-09 02:43 | 38.63533 | -122.28681 | 28600 ft | 397 kts | 237° |
| 2026-05-09 02:43 | 38.61847 | -122.31468 | 28174 ft | 395 kts | 237° |
| 2026-05-09 02:44 | 38.60162 | -122.34235 | 27702 ft | 394 kts | 237° |
| 2026-05-09 02:44 | 38.58512 | -122.36955 | 27314 ft | 393 kts | 237° |
| 2026-05-09 02:44 | 38.56847 | -122.39720 | 26867 ft | 391 kts | 237° |
| 2026-05-09 02:44 | 38.55200 | -122.42469 | 26448 ft | 389 kts | 237° |
| 2026-05-09 02:45 | 38.53337 | -122.44997 | 26035 ft | 394 kts | 225° |
| 2026-05-09 02:45 | 38.51205 | -122.47206 | 25588 ft | 395 kts | 223° |
| 2026-05-09 02:45 | 38.49068 | -122.49390 | 25152 ft | 392 kts | 223° |
| 2026-05-09 02:45 | 38.46945 | -122.51567 | 24721 ft | 390 kts | 223° |
| 2026-05-09 02:46 | 38.44865 | -122.53705 | 24293 ft | 389 kts | 223° |
| 2026-05-09 02:46 | 38.42758 | -122.55858 | 23876 ft | 387 kts | 222° |
| 2026-05-09 02:46 | 38.40652 | -122.57988 | 23410 ft | 386 kts | 222° |
| 2026-05-09 02:46 | 38.38567 | -122.60112 | 23021 ft | 382 kts | 222° |
| 2026-05-09 02:47 | 38.36498 | -122.62229 | 22576 ft | 381 kts | 222° |
| 2026-05-09 02:47 | 38.34436 | -122.64344 | 22188 ft | 380 kts | 222° |
| 2026-05-09 02:47 | 38.32381 | -122.66454 | 21749 ft | 378 kts | 222° |
| 2026-05-09 02:47 | 38.30342 | -122.68546 | 21340 ft | 375 kts | 222° |
| 2026-05-09 02:48 | 38.28316 | -122.70630 | 20930 ft | 373 kts | 222° |
| 2026-05-09 02:48 | 38.26328 | -122.72668 | 20523 ft | 371 kts | 222° |
| 2026-05-09 02:48 | 38.24296 | -122.74674 | 20110 ft | 370 kts | 215° |
| 2026-05-09 02:48 | 38.21870 | -122.75804 | 19686 ft | 377 kts | 191° |
| 2026-05-09 02:49 | 38.19243 | -122.75701 | 19295 ft | 382 kts | 172° |
| 2026-05-09 02:49 | 38.16652 | -122.74927 | 18841 ft | 382 kts | 169° |
| 2026-05-09 02:49 | 38.14080 | -122.74169 | 18416 ft | 377 kts | 171° |
| 2026-05-09 02:49 | 38.11527 | -122.73464 | 17977 ft | 374 kts | 171° |
| 2026-05-09 02:50 | 38.08999 | -122.72745 | 17586 ft | 372 kts | 171° |
| 2026-05-09 02:50 | 38.06481 | -122.72026 | 17170 ft | 369 kts | 171° |
| 2026-05-09 02:50 | 38.04017 | -122.71316 | 16764 ft | 367 kts | 171° |
| 2026-05-09 02:50 | 38.01532 | -122.70608 | 16369 ft | 365 kts | 171° |
| 2026-05-09 02:51 | 37.99064 | -122.69910 | 15978 ft | 363 kts | 171° |
| 2026-05-09 02:51 | 37.96608 | -122.69210 | 15571 ft | 360 kts | 171° |
| 2026-05-09 02:51 | 37.94171 | -122.68510 | 15189 ft | 358 kts | 169° |
| 2026-05-09 02:51 | 37.91753 | -122.67812 | 14776 ft | 352 kts | 170° |
| 2026-05-09 02:52 | 37.89494 | -122.66706 | 14407 ft | 347 kts | 152° |
| 2026-05-09 02:52 | 37.87596 | -122.64872 | 14053 ft | 339 kts | 142° |
| 2026-05-09 02:52 | 37.85824 | -122.62943 | 13628 ft | 332 kts | 142° |
| 2026-05-09 02:52 | 37.84107 | -122.61114 | 13300 ft | 323 kts | 142° |
| 2026-05-09 02:53 | 37.82402 | -122.59308 | 12943 ft | 317 kts | 142° |
| 2026-05-09 02:53 | 37.80725 | -122.57533 | 12613 ft | 312 kts | 141° |
| 2026-05-09 02:53 | 37.79067 | -122.55771 | 12264 ft | 311 kts | 142° |
| 2026-05-09 02:53 | 37.77417 | -122.54022 | 11927 ft | 309 kts | 141° |
| 2026-05-09 02:54 | 37.75769 | -122.52275 | 11576 ft | 309 kts | 141° |
| 2026-05-09 02:54 | 37.74121 | -122.50533 | 11290 ft | 307 kts | 141° |
| 2026-05-09 02:54 | 37.72490 | -122.48808 | 11162 ft | 306 kts | 141° |
| 2026-05-09 02:54 | 37.70862 | -122.47076 | 11084 ft | 306 kts | 141° |
| 2026-05-09 02:55 | 37.69267 | -122.45374 | 11086 ft | 306 kts | 141° |
| 2026-05-09 02:55 | 37.67636 | -122.43642 | 11086 ft | 305 kts | 141° |
| 2026-05-09 02:55 | 37.66014 | -122.41917 | 11080 ft | 305 kts | 141° |
| 2026-05-09 02:55 | 37.64377 | -122.40177 | 11081 ft | 308 kts | 141° |
| 2026-05-09 02:56 | 37.62734 | -122.38431 | 10972 ft | 312 kts | 141° |
| 2026-05-09 02:56 | 37.60992 | -122.36779 | 10586 ft | 312 kts | 154° |
| 2026-05-09 02:56 | 37.59019 | -122.35744 | 10238 ft | 304 kts | 158° |
| 2026-05-09 02:56 | 37.57149 | -122.34556 | 9883 ft | 299 kts | 152° |
| 2026-05-09 02:57 | 37.55362 | -122.33334 | 9508 ft | 294 kts | 153° |
| 2026-05-09 02:57 | 37.53573 | -122.32119 | 9152 ft | 289 kts | 152° |
| 2026-05-09 02:57 | 37.51826 | -122.30942 | 8776 ft | 280 kts | 152° |
| 2026-05-09 02:57 | 37.50143 | -122.29819 | 8382 ft | 267 kts | 153° |
| 2026-05-09 02:58 | 37.48538 | -122.28747 | 7965 ft | 253 kts | 150° |
| 2026-05-09 02:58 | 37.47282 | -122.27297 | 7548 ft | 245 kts | 121° |
| 2026-05-09 02:58 | 37.46577 | -122.25349 | 7157 ft | 244 kts | 112° |
| 2026-05-09 02:58 | 37.45927 | -122.23417 | 6702 ft | 242 kts | 112° |
| 2026-05-09 02:59 | 37.45281 | -122.21492 | 6224 ft | 236 kts | 112° |
| 2026-05-09 02:59 | 37.44647 | -122.19604 | 5721 ft | 233 kts | 112° |
| 2026-05-09 02:59 | 37.44022 | -122.17741 | 5230 ft | 230 kts | 112° |
| 2026-05-09 02:59 | 37.43408 | -122.15896 | 4741 ft | 227 kts | 111° |
| 2026-05-09 03:00 | 37.43128 | -122.13987 | 4214 ft | 222 kts | 78° |
| 2026-05-09 03:00 | 37.43799 | -122.12336 | 3725 ft | 210 kts | 38° |
| 2026-05-09 03:00 | 37.45064 | -122.11473 | 3249 ft | 211 kts | 20° |
| 2026-05-09 03:00 | 37.46385 | -122.10709 | 3179 ft | 206 kts | 20° |
| 2026-05-09 03:01 | 37.47657 | -122.09953 | 3527 ft | 197 kts | 22° |
| 2026-05-09 03:01 | 37.48967 | -122.09603 | 3710 ft | 201 kts | 350° |
| 2026-05-09 03:01 | 37.50131 | -122.10402 | 3340 ft | 198 kts | 309° |
| 2026-05-09 03:01 | 37.50927 | -122.11735 | 3279 ft | 184 kts | 310° |
| 2026-05-09 03:02 | 37.51613 | -122.13099 | 3226 ft | 188 kts | 297° |
| 2026-05-09 03:02 | 37.52206 | -122.14586 | 3223 ft | 192 kts | 300° |
| 2026-05-09 03:02 | 37.52868 | -122.16024 | 3239 ft | 189 kts | 300° |
| 2026-05-09 03:02 | 37.53494 | -122.17498 | 3158 ft | 192 kts | 298° |
| 2026-05-09 03:03 | 37.54105 | -122.18961 | 2973 ft | 187 kts | 298° |
| 2026-05-09 03:03 | 37.54703 | -122.20386 | 2759 ft | 179 kts | 298° |
| 2026-05-09 03:03 | 37.55281 | -122.21764 | 2537 ft | 177 kts | 298° |
| 2026-05-09 03:03 | 37.55844 | -122.23107 | 2312 ft | 175 kts | 297° |
| 2026-05-09 03:04 | 37.56411 | -122.24457 | 2089 ft | 174 kts | 297° |
| 2026-05-09 03:04 | 37.56943 | -122.25728 | 1851 ft | 153 kts | 295° |
| 2026-05-09 03:04 | 37.57333 | -122.26877 | 1645 ft | 135 kts | 295° |
| 2026-05-09 03:04 | 37.57831 | -122.27844 | 1472 ft | 130 kts | 302° |
| 2026-05-09 03:05 | 37.58260 | -122.28832 | 1311 ft | 128 kts | 294° |
| 2026-05-09 03:05 | 37.58656 | -122.29841 | 1125 ft | 128 kts | 296° |
| 2026-05-09 03:05 | 37.59083 | -122.30825 | 952 ft | 127 kts | 297° |
| 2026-05-09 03:05 | 37.59489 | -122.31796 | 778 ft | 127 kts | 295° |
| 2026-05-09 03:06 | 37.59871 | -122.32794 | 599 ft | 127 kts | 296° |
| 2026-05-09 03:06 | 37.60299 | -122.33757 | 422 ft | 125 kts | 296° |
| 2026-05-09 03:06 | 37.60701 | -122.34720 | 262 ft | 124 kts | 295° |
| 2026-05-09 03:06 | 37.61103 | -122.35681 | 105 ft | 125 kts | 298° |
| 2026-05-09 03:07 | 37.61497 | -122.36614 | 20 ft | 109 kts | 297° |
| 2026-05-09 03:07 | 37.61785 | -122.37299 | 21 ft | 68 kts | 298° |
| 2026-05-09 03:07 | 37.61954 | -122.37701 | 22 ft | 37 kts | 297° |
| 2026-05-09 03:07 | 37.61994 | -122.37893 | 22 ft | 12 kts | 241° |
| 2026-05-09 03:08 | 37.61934 | -122.37978 | 21 ft | 14 kts | 226° |
| 2026-05-09 03:08 | 37.61917 | -122.38089 | 20 ft | 15 kts | 293° |
| 2026-05-09 03:08 | 37.61959 | -122.38187 | 20 ft | 14 kts | 298° |
| 2026-05-09 03:08 | 37.62008 | -122.38304 | 20 ft | 16 kts | 297° |
| 2026-05-09 03:09 | 37.62058 | -122.38426 | 20 ft | 12 kts | 297° |
| 2026-05-09 03:09 | 37.62087 | -122.38510 | 20 ft | 7 kts | 269° |
| 2026-05-09 03:09 | 37.62081 | -122.38576 | 20 ft | 8 kts | 265° |
| 2026-05-09 03:09 | 37.62080 | -122.38616 | 20 ft | 4 kts | 268° |
| 2026-05-09 03:10 | 37.62079 | -122.38641 | 20 ft | 2 kts | 268° |
| 2026-05-09 03:10 | 37.62079 | -122.38644 | 20 ft | 0 kts | 268° |